Time;durP1;ratioP1;P1;durP2;ratioP2;P2;SDS_P1;SDS_P2;PMS_P1;PMS_P2;Temp;Humidity;BMP_temperature;BMP_pressure;BME280_temperature;BME280_humidity;BME280_pressure;Samples;Min_cycle;Max_cycle;Signal;HPM_P1;HPM_P2
2021/08/31 07:08:52;;;;;;;;;;;;;;;;;;;;;
2021/08/31 07:11:46;;;;;;;;;;;;;;;;;;;;;
2021/08/31 07:17:54;;;;;;;15.67;14.27;;;15.20;99.90;;;;;;4850673;29;20525;-80
2021/08/31 07:20:53;;;;;;;13.53;12.13;;;15.30;99.90;;;;;;4926893;29;20470;-80
2021/08/31 07:23:46;;;;;;;15.00;13.57;;;15.20;99.90;;;;;;4926959;29;20459;-80
2021/08/31 07:26:35;;;;;;;16.90;13.20;;;15.20;99.90;;;;;;4923687;29;20475;-80
2021/08/31 07:29:04;;;;;;;12.03;10.87;;;15.30;99.90;;;;;;4923816;29;21277;-80
2021/08/31 07:32:16;;;;;;;;;;;;;;;;;;;;;
2021/08/31 12:40:21;;;;;;;7.53;6.83;;;19.60;99.90;;;;;;1648575;23;20509;-83
2021/08/31 12:42:50;;;;;;;7.70;6.70;;;19.70;99.90;;;;;;4959171;29;20464;-83
2021/08/31 12:45:26;;;;;;;7.70;6.07;;;19.90;99.90;;;;;;4959511;29;20457;-83
2021/08/31 12:47:54;;;;;;;6.57;6.07;;;20.00;99.90;;;;;;4959040;29;20464;-83
2021/08/31 12:50:22;;;;;;;8.40;6.97;;;20.10;99.90;;;;;;4958634;28;20830;-83
2021/08/31 12:53:03;;;;;;;7.57;5.97;;;20.10;99.90;;;;;;4957488;29;20453;-83
2021/08/31 12:55:32;;;;;;;7.70;6.80;;;20.30;99.90;;;;;;4959036;29;20452;-83
2021/08/31 12:58:28;;;;;;;6.00;5.50;;;20.50;99.90;;;;;;4961748;28;20511;-83
2021/08/31 13:01:13;;;;;;;6.77;6.17;;;20.50;99.90;;;;;;4962535;29;20484;-83
2021/08/31 13:03:42;;;;;;;5.33;4.93;;;20.40;99.90;;;;;;4962733;29;20471;-83
2021/08/31 13:06:33;;;;;;;6.80;6.20;;;20.30;99.90;;;;;;4962827;29;20468;-83
2021/08/31 13:09:00;;;;;;;5.90;5.37;;;20.40;99.90;;;;;;4962919;29;20459;-84
2021/08/31 13:11:29;;;;;;;7.07;6.47;;;20.40;99.90;;;;;;4962561;29;20579;-84
2021/08/31 13:13:56;;;;;;;8.97;7.17;;;20.30;99.90;;;;;;4964112;29;20459;-84
2021/08/31 13:16:23;;;;;;;6.90;6.33;;;20.40;99.90;;;;;;4963862;29;20450;-84
2021/08/31 13:18:50;;;;;;;14.73;7.77;;;20.40;99.90;;;;;;4967206;29;20488;-84
2021/08/31 13:21:17;;;;;;;9.90;7.07;;;20.20;99.90;;;;;;4964043;29;20476;-84
2021/08/31 13:23:44;;;;;;;5.63;5.13;;;20.10;99.90;;;;;;4961378;28;20472;-84
2021/08/31 13:26:10;;;;;;;9.77;7.57;;;20.10;99.90;;;;;;4961670;29;20460;-84
2021/08/31 13:28:41;;;;;;;6.50;5.80;;;20.20;99.90;;;;;;4961374;29;20461;-84
2021/08/31 13:31:08;;;;;;;7.27;6.57;;;20.20;99.90;;;;;;4960479;29;20483;-84
2021/08/31 13:33:35;;;;;;;19.87;9.87;;;20.10;99.90;;;;;;4958972;29;20468;-83
2021/08/31 13:36:01;;;;;;;8.80;6.37;;;20.20;99.90;;;;;;4959755;29;20833;-84
2021/08/31 13:38:28;;;;;;;6.00;5.50;;;20.30;99.90;;;;;;4961008;29;20575;-83
2021/08/31 13:40:55;;;;;;;8.23;7.43;;;20.60;99.90;;;;;;4961451;29;20486;-83
2021/08/31 13:43:21;;;;;;;6.57;5.47;;;21.70;99.90;;;;;;4960732;28;20456;-84
2021/08/31 13:45:49;;;;;;;5.37;4.97;;;22.60;99.90;;;;;;4959919;28;20469;-84
2021/08/31 13:48:16;;;;;;;5.80;5.30;;;22.70;99.90;;;;;;4960231;28;20946;-84
2021/08/31 13:50:43;;;;;;;6.60;5.90;;;22.50;99.90;;;;;;4961425;28;20993;-83
2021/08/31 13:53:10;;;;;;;5.97;5.47;;;22.80;99.90;;;;;;4961561;29;20460;-83
2021/08/31 13:55:37;;;;;;;5.67;5.27;;;23.50;99.90;;;;;;4963266;28;20449;-83
2021/08/31 13:58:04;;;;;;;6.53;5.93;;;24.20;99.90;;;;;;4961879;29;20484;-84
2021/08/31 14:00:31;;;;;;;5.47;5.07;;;25.20;99.90;;;;;;4959789;28;21079;-84
2021/08/31 14:03:01;;;;;;;5.80;5.30;;;25.20;98.80;;;;;;4957867;28;20452;-84
2021/08/31 14:05:27;;;;;;;5.80;5.40;;;24.70;98.40;;;;;;4960976;29;20495;-84
2021/08/31 14:07:54;;;;;;;6.63;6.13;;;24.10;97.40;;;;;;4964099;29;20456;-84
2021/08/31 14:10:21;;;;;;;6.67;6.07;;;23.40;98.00;;;;;;4961331;28;20474;-84
2021/08/31 14:12:48;;;;;;;6.60;6.10;;;22.70;99.40;;;;;;4959025;28;20454;-84
2021/08/31 14:15:14;;;;;;;6.13;5.63;;;22.10;99.80;;;;;;4959606;28;20482;-84
2021/08/31 14:17:41;;;;;;;5.20;4.80;;;21.90;99.90;;;;;;4959543;29;20465;-84
2021/08/31 14:20:11;;;;;;;6.50;6.00;;;21.60;99.90;;;;;;4960169;29;20484;-84
2021/08/31 14:22:38;;;;;;;6.77;6.17;;;20.90;99.90;;;;;;4959383;29;20842;-84
2021/08/31 14:25:05;;;;;;;6.00;5.50;;;20.50;99.90;;;;;;4960325;29;20460;-84
2021/08/31 14:27:32;;;;;;;7.10;6.50;;;19.90;99.90;;;;;;4960026;29;20449;-84
2021/08/31 14:29:59;;;;;;;6.73;6.13;;;19.60;99.90;;;;;;4959617;29;20471;-84
2021/08/31 14:32:26;;;;;;;6.50;5.90;;;19.20;99.90;;;;;;4959679;29;20466;-84
2021/08/31 14:34:52;;;;;;;6.40;5.77;;;18.90;99.90;;;;;;4960781;28;20451;-84
2021/08/31 14:37:20;;;;;;;6.20;5.70;;;18.60;99.90;;;;;;4961979;29;20453;-84
2021/08/31 14:39:47;;;;;;;6.20;5.80;;;18.50;99.90;;;;;;4959765;29;20861;-84
2021/08/31 14:42:14;;;;;;;7.90;7.03;;;18.30;99.90;;;;;;4958597;29;20455;-84
2021/08/31 14:44:42;;;;;;;6.80;6.17;;;18.10;99.90;;;;;;4959534;29;20448;-84
2021/08/31 14:47:09;;;;;;;7.00;6.40;;;17.90;99.90;;;;;;4960173;28;20482;-84
2021/08/31 14:49:36;;;;;;;7.43;6.50;;;17.80;99.90;;;;;;4959927;29;20798;-84
2021/08/31 14:52:02;;;;;;;6.40;5.80;;;17.90;99.90;;;;;;4958824;29;20458;-84
2021/08/31 14:54:31;;;;;;;7.50;6.90;;;17.90;99.90;;;;;;4960211;29;20453;-84
2021/08/31 14:56:57;;;;;;;7.47;6.87;;;18.00;99.90;;;;;;4959222;29;20464;-84
2021/08/31 14:59:24;;;;;;;7.40;6.70;;;18.10;99.90;;;;;;4961897;29;20527;-84
2021/08/31 15:01:54;;;;;;;8.53;7.77;;;18.10;99.90;;;;;;4959923;29;20459;-84
2021/08/31 15:04:21;;;;;;;6.90;6.30;;;18.20;99.90;;;;;;4960253;29;20466;-84
2021/08/31 15:06:48;;;;;;;6.87;6.03;;;18.30;99.90;;;;;;4961129;29;20455;-84
2021/08/31 15:09:14;;;;;;;6.73;6.17;;;18.40;99.90;;;;;;4960257;29;20455;-84
2021/08/31 15:11:43;;;;;;;6.90;6.30;;;18.50;99.90;;;;;;4960342;29;21024;-84
2021/08/31 15:14:11;;;;;;;7.40;6.73;;;18.80;99.90;;;;;;4960113;29;20468;-84
2021/08/31 15:16:38;;;;;;;7.40;6.70;;;19.00;99.90;;;;;;4960854;29;20617;-84
2021/08/31 15:19:07;;;;;;;5.73;5.27;;;19.20;99.90;;;;;;4961136;28;21014;-84
2021/08/31 15:21:35;;;;;;;6.40;5.80;;;19.40;99.90;;;;;;4961644;28;20480;-84
2021/08/31 15:24:02;;;;;;;6.33;5.83;;;19.70;99.90;;;;;;4960972;29;20482;-84
2021/08/31 15:26:32;;;;;;;6.17;5.47;;;20.10;99.90;;;;;;4959858;29;20467;-84
2021/08/31 15:29:00;;;;;;;7.13;6.43;;;20.40;99.90;;;;;;4959123;29;21023;-84
2021/08/31 15:31:28;;;;;;;6.07;5.57;;;20.50;99.90;;;;;;4959203;28;20487;-84
2021/08/31 15:33:55;;;;;;;5.23;4.80;;;20.40;99.90;;;;;;4959854;29;20837;-84
2021/08/31 15:36:22;;;;;;;6.50;6.00;;;20.30;99.90;;;;;;4959628;29;20467;-84
2021/08/31 15:38:49;;;;;;;7.53;5.93;;;20.30;99.90;;;;;;4959642;29;20480;-84
2021/08/31 15:41:17;;;;;;;6.60;5.83;;;20.30;99.90;;;;;;4959701;29;20488;-84
2021/08/31 15:43:45;;;;;;;6.10;5.70;;;20.30;99.90;;;;;;4959683;29;20488;-84
2021/08/31 15:46:14;;;;;;;7.00;6.40;;;20.40;99.90;;;;;;4960122;29;20503;-84
2021/08/31 15:48:40;;;;;;;6.10;5.60;;;20.30;99.90;;;;;;4960535;28;20449;-84
2021/08/31 15:51:07;;;;;;;6.00;5.60;;;20.30;99.90;;;;;;4961333;29;20464;-84
2021/08/31 15:53:35;;;;;;;7.87;7.17;;;20.50;99.90;;;;;;4959236;28;20452;-84
2021/08/31 15:56:01;;;;;;;6.03;5.57;;;20.60;99.90;;;;;;4960161;28;20463;-84
2021/08/31 15:58:28;;;;;;;7.83;6.83;;;20.60;99.90;;;;;;4958596;29;20459;-84
2021/08/31 16:00:55;;;;;;;6.90;5.77;;;20.50;99.90;;;;;;4959624;29;20495;-84
2021/08/31 16:03:23;;;;;;;6.70;6.10;;;20.40;99.90;;;;;;4959405;28;20498;-84
2021/08/31 16:05:50;;;;;;;5.77;5.37;;;20.30;99.90;;;;;;4959305;29;20457;-84
2021/08/31 16:08:17;;;;;;;6.43;5.83;;;20.40;99.90;;;;;;4958527;29;20463;-84
2021/08/31 16:10:43;;;;;;;5.90;5.30;;;20.40;99.90;;;;;;4959951;29;20470;-84
2021/08/31 16:13:10;;;;;;;6.80;6.10;;;20.50;99.90;;;;;;4958854;29;20460;-84
2021/08/31 16:15:38;;;;;;;6.83;6.33;;;20.60;99.90;;;;;;4958595;29;20457;-84
2021/08/31 16:18:05;;;;;;;5.83;5.13;;;21.00;99.90;;;;;;4957635;29;20520;-84
2021/08/31 16:20:33;;;;;;;7.10;6.50;;;21.10;99.90;;;;;;4957227;28;20881;-84
2021/08/31 16:23:00;;;;;;;5.87;5.47;;;21.20;99.90;;;;;;4957465;29;20461;-84
2021/08/31 16:25:27;;;;;;;5.90;5.50;;;21.30;99.90;;;;;;4958525;29;20459;-84
2021/08/31 16:27:55;;;;;;;6.00;5.57;;;21.40;99.90;;;;;;4958447;29;20458;-84
2021/08/31 16:30:21;;;;;;;6.70;6.10;;;21.20;99.90;;;;;;4958414;28;20465;-84
2021/08/31 16:32:49;;;;;;;5.60;5.10;;;21.30;99.90;;;;;;4958021;28;20465;-84
2021/08/31 16:35:16;;;;;;;5.30;4.90;;;21.10;99.90;;;;;;4962102;29;20887;-84
2021/08/31 16:37:44;;;;;;;5.60;5.10;;;21.20;99.90;;;;;;4961994;29;20472;-84
2021/08/31 16:40:13;;;;;;;6.00;5.50;;;21.20;99.40;;;;;;4961625;29;20492;-86
2021/08/31 16:42:41;;;;;;;6.43;5.93;;;21.00;99.90;;;;;;4960814;29;20480;-84
2021/08/31 16:45:09;;;;;;;7.10;6.50;;;20.90;99.90;;;;;;4961629;29;20468;-84
2021/08/31 16:47:37;;;;;;;6.00;5.50;;;20.70;99.90;;;;;;4961133;29;20467;-84
2021/08/31 16:50:05;;;;;;;6.70;6.20;;;20.50;99.90;;;;;;4962206;29;20479;-86
2021/08/31 16:52:32;;;;;;;7.73;6.50;;;20.20;99.90;;;;;;4959594;29;20551;-86
2021/08/31 16:55:01;;;;;;;8.70;6.90;;;20.00;99.90;;;;;;4960110;28;20833;-86
2021/08/31 16:57:28;;;;;;;6.57;6.00;;;19.90;99.90;;;;;;4960564;29;20452;-85
2021/08/31 16:59:55;;;;;;;5.60;5.10;;;19.80;99.90;;;;;;4961146;29;20496;-85
2021/08/31 17:02:21;;;;;;;6.57;5.97;;;19.50;99.90;;;;;;4961602;28;20462;-85
2021/08/31 17:04:54;;;;;;;6.10;5.60;;;19.30;99.90;;;;;;4960463;28;20830;-84
2021/08/31 17:07:21;;;;;;;6.43;5.83;;;19.20;99.90;;;;;;4961479;29;20971;-85
2021/08/31 17:09:48;;;;;;;6.50;5.90;;;19.10;99.90;;;;;;4962142;28;20472;-85
2021/08/31 17:12:16;;;;;;;5.33;4.93;;;19.20;99.90;;;;;;4961907;28;20460;-85
2021/08/31 17:14:42;;;;;;;6.00;5.50;;;19.40;99.90;;;;;;4961964;29;20464;-85
2021/08/31 17:17:09;;;;;;;5.37;4.87;;;19.70;99.90;;;;;;4962109;29;20548;-85
2021/08/31 17:19:38;;;;;;;5.63;5.23;;;20.10;99.90;;;;;;4962842;29;20488;-85
2021/08/31 17:22:07;;;;;;;5.83;5.27;;;20.30;99.90;;;;;;4959627;28;20457;-86
2021/08/31 17:24:37;;;;;;;6.07;5.47;;;20.30;99.90;;;;;;4963405;28;20460;-85
2021/08/31 17:27:10;;;;;;;6.40;5.90;;;20.40;99.90;;;;;;4980961;28;20456;-86
2021/08/31 17:29:47;;;;;;;6.10;5.53;;;20.50;99.90;;;;;;4982963;28;20461;-85
2021/08/31 17:32:32;;;;;;;6.50;6.00;;;20.50;99.90;;;;;;4978409;28;20467;-86
2021/08/31 17:34:59;;;;;;;7.00;6.30;;;20.20;99.90;;;;;;4945989;29;20517;-86
2021/08/31 17:37:27;;;;;;;6.37;5.80;;;20.20;99.90;;;;;;4950214;29;20444;-84
2021/08/31 17:39:53;;;;;;;6.43;5.93;;;20.30;99.90;;;;;;4944620;29;20489;-85
2021/08/31 17:42:21;;;;;;;6.60;6.03;;;20.40;99.90;;;;;;4941240;29;20458;-85
2021/08/31 17:44:49;;;;;;;7.17;6.27;;;20.40;99.90;;;;;;4941210;29;20453;-84
2021/08/31 17:47:16;;;;;;;7.23;6.50;;;20.30;99.90;;;;;;4943731;29;20464;-85
2021/08/31 17:49:43;;;;;;;7.03;6.00;;;20.10;99.90;;;;;;4961781;29;20461;-84
2021/08/31 17:52:11;;;;;;;7.23;6.63;;;19.90;99.90;;;;;;4961677;29;20456;-85
2021/08/31 17:54:41;;;;;;;6.87;6.27;;;19.70;99.90;;;;;;4962822;29;20455;-86
2021/08/31 17:57:07;;;;;;;6.80;6.20;;;19.70;99.90;;;;;;4965281;28;20464;-85
2021/08/31 17:59:36;;;;;;;6.70;6.10;;;19.60;99.90;;;;;;4973366;28;20495;-85
2021/08/31 18:02:09;;;;;;;6.40;5.80;;;19.40;99.90;;;;;;4941368;29;20464;-86
2021/08/31 18:04:55;;;;;;;7.60;7.00;;;19.20;99.90;;;;;;4944703;29;20476;-85
2021/08/31 18:07:22;;;;;;;8.27;7.40;;;18.80;99.90;;;;;;4947687;29;20455;-85
2021/08/31 18:09:49;;;;;;;8.17;7.50;;;18.60;99.90;;;;;;4950438;29;20516;-85
2021/08/31 18:12:18;;;;;;;7.50;6.80;;;18.70;99.90;;;;;;4933503;29;20483;-86
2021/08/31 18:14:45;;;;;;;6.93;6.33;;;18.50;99.90;;;;;;4950393;29;20456;-85
2021/08/31 18:17:14;;;;;;;8.07;7.47;;;18.40;99.90;;;;;;4949485;29;20998;-86
2021/08/31 18:19:41;;;;;;;7.50;6.80;;;18.30;99.90;;;;;;4950411;29;20862;-85
2021/08/31 18:22:08;;;;;;;8.23;7.10;;;18.00;99.90;;;;;;4949224;29;20473;-86
2021/08/31 18:24:42;;;;;;;7.57;6.87;;;17.80;99.90;;;;;;4943881;29;20456;-86
2021/08/31 18:27:11;;;;;;;10.40;7.23;;;17.60;99.90;;;;;;4922916;29;20451;-85
2021/08/31 18:29:39;;;;;;;8.10;7.40;;;17.40;99.90;;;;;;4940129;29;20467;-85
2021/08/31 18:35:28;;;;;;;8.53;7.80;;;17.20;99.90;;;;;;4945058;29;20917;-85
2021/08/31 18:37:55;;;;;;;8.83;8.00;;;17.10;99.90;;;;;;4940634;29;20538;-85
2021/08/31 19:44:33;;;;;;;7.70;7.00;;;16.10;99.90;;;;;;4974375;29;20496;-82
2021/08/31 19:47:00;;;;;;;9.93;8.93;;;16.00;99.90;;;;;;4976248;28;20446;-83
2021/08/31 19:49:27;;;;;;;8.90;8.10;;;16.00;99.90;;;;;;4973430;29;20491;-83
2021/08/31 19:51:54;;;;;;;11.10;8.17;;;16.00;99.90;;;;;;4976360;29;20461;-84
2021/08/31 19:54:20;;;;;;;9.63;8.93;;;16.00;99.90;;;;;;4975404;29;20453;-86
2021/08/31 19:56:47;;;;;;;9.87;8.87;;;16.00;99.90;;;;;;4968054;28;20460;-83
2021/08/31 19:59:14;;;;;;;11.93;9.87;;;16.00;99.90;;;;;;4964480;29;20941;-87
2021/08/31 20:01:43;;;;;;;10.80;9.80;;;15.90;99.90;;;;;;4960348;29;20461;-87
2021/08/31 20:04:10;;;;;;;9.83;8.87;;;15.90;99.90;;;;;;4958206;29;20946;-85
2021/08/31 20:06:37;;;;;;;9.90;8.93;;;15.80;99.90;;;;;;4959044;29;20441;-86
2021/08/31 20:09:04;;;;;;;9.90;9.10;;;15.70;99.90;;;;;;4961307;29;20426;-85
2021/08/31 20:11:31;;;;;;;12.17;9.50;;;15.70;99.90;;;;;;4962194;29;20469;-82
2021/08/31 20:13:58;;;;;;;10.50;9.40;;;15.60;99.90;;;;;;4961706;29;20449;-88
2021/08/31 20:16:25;;;;;;;9.80;9.00;;;15.60;99.90;;;;;;4956163;29;20458;-81
2021/08/31 20:18:53;;;;;;;10.57;9.53;;;15.60;99.90;;;;;;4959359;28;20434;-83
2021/08/31 20:21:20;;;;;;;11.27;10.17;;;15.50;99.90;;;;;;4955815;29;20489;-81
2021/08/31 20:23:46;;;;;;;9.63;8.77;;;15.50;99.90;;;;;;4960583;28;20453;-86
2021/08/31 20:26:14;;;;;;;9.90;8.90;;;15.50;99.90;;;;;;4971409;29;20451;-83
2021/08/31 20:28:41;;;;;;;10.33;9.33;;;15.40;99.90;;;;;;4975690;29;20457;-83
2021/08/31 20:31:08;;;;;;;11.40;10.30;;;15.40;99.90;;;;;;4976918;29;20552;-83
2021/08/31 20:33:35;;;;;;;10.17;9.10;;;15.30;99.90;;;;;;4974698;29;20485;-84
2021/08/31 20:36:03;;;;;;;12.43;10.30;;;15.30;99.90;;;;;;4974804;29;20441;-83
2021/08/31 20:38:30;;;;;;;10.00;8.90;;;15.30;99.90;;;;;;4972548;29;20944;-86
2021/08/31 20:40:57;;;;;;;9.70;8.80;;;15.20;99.90;;;;;;4973672;29;20496;-83
2021/08/31 20:43:24;;;;;;;11.63;10.53;;;15.10;99.90;;;;;;4972973;29;20457;-86
2021/08/31 20:45:51;;;;;;;10.70;9.80;;;15.10;99.90;;;;;;4974825;29;20633;-82
2021/08/31 20:48:17;;;;;;;11.40;10.30;;;15.10;99.90;;;;;;4974388;29;20449;-83
2021/08/31 20:50:44;;;;;;;12.70;11.60;;;15.00;99.90;;;;;;4975437;28;20469;-83
2021/08/31 20:53:12;;;;;;;12.00;10.90;;;15.00;99.90;;;;;;4975543;28;20448;-86
2021/08/31 20:55:39;;;;;;;11.97;10.77;;;14.90;99.90;;;;;;4975138;28;20464;-83
2021/08/31 20:58:06;;;;;;;11.50;10.40;;;14.80;99.90;;;;;;4972982;29;20463;-84
2021/08/31 21:00:33;;;;;;;11.03;9.93;;;14.70;99.90;;;;;;4972264;29;20494;-85
2021/08/31 21:03:00;;;;;;;12.83;11.70;;;14.70;99.90;;;;;;4974999;29;20456;-84
2021/08/31 21:05:27;;;;;;;12.70;11.37;;;14.60;99.90;;;;;;4975592;29;20475;-85
2021/08/31 21:07:54;;;;;;;11.83;10.77;;;14.50;99.90;;;;;;4976154;29;20454;-83
2021/08/31 21:10:22;;;;;;;11.73;10.17;;;14.40;99.90;;;;;;4975569;28;20479;-86
2021/08/31 21:12:49;;;;;;;12.50;11.20;;;14.50;99.90;;;;;;4974606;29;20440;-83
2021/08/31 21:15:15;;;;;;;12.40;11.13;;;14.50;99.90;;;;;;4975810;29;20457;-83
2021/08/31 21:17:42;;;;;;;14.10;11.47;;;14.40;99.90;;;;;;4975705;28;20451;-84
2021/08/31 21:20:10;;;;;;;11.17;10.23;;;14.30;99.90;;;;;;4978811;29;20488;-85
2021/08/31 21:22:37;;;;;;;11.37;10.13;;;14.40;99.90;;;;;;4977285;29;20455;-83
2021/08/31 21:25:05;;;;;;;11.77;10.67;;;14.40;99.90;;;;;;4978116;28;21184;-83
2021/08/31 21:27:34;;;;;;;10.50;9.47;;;14.40;99.90;;;;;;4978540;29;20456;-83
2021/08/31 21:30:01;;;;;;;11.27;10.07;;;14.40;99.90;;;;;;4979795;28;20451;-82
2021/08/31 21:32:28;;;;;;;11.10;10.07;;;14.40;99.90;;;;;;4978779;28;20433;-83
2021/08/31 21:34:55;;;;;;;11.87;10.77;;;14.40;99.90;;;;;;4979574;28;20452;-82
2021/08/31 21:37:22;;;;;;;12.03;10.63;;;14.40;99.90;;;;;;4980744;28;20540;-84
2021/08/31 21:39:48;;;;;;;13.00;11.20;;;14.40;99.90;;;;;;4978048;29;20452;-83
2021/08/31 21:42:15;;;;;;;11.07;9.97;;;14.40;99.90;;;;;;4976532;29;20455;-86
2021/08/31 21:44:43;;;;;;;11.23;10.03;;;14.40;99.90;;;;;;4976775;29;20448;-87
2021/08/31 21:47:10;;;;;;;11.90;10.80;;;14.40;99.90;;;;;;4975634;29;20445;-82
2021/08/31 21:49:37;;;;;;;11.33;10.20;;;14.30;99.90;;;;;;4979185;28;20453;-84
2021/08/31 21:52:04;;;;;;;9.97;8.87;;;14.30;99.90;;;;;;4975693;29;20473;-85
2021/08/31 21:54:32;;;;;;;9.17;8.43;;;14.30;99.90;;;;;;4975040;29;20463;-86
2021/08/31 21:56:59;;;;;;;12.13;10.80;;;14.30;99.90;;;;;;4975937;29;20460;-84
2021/08/31 21:59:26;;;;;;;11.27;10.17;;;14.20;99.90;;;;;;4969508;28;20452;-86
2021/08/31 22:01:54;;;;;;;11.27;10.27;;;14.20;99.90;;;;;;4969530;29;20496;-86
2021/08/31 22:04:21;;;;;;;11.10;10.10;;;14.20;99.90;;;;;;4973264;28;20456;-85
2021/08/31 22:06:48;;;;;;;9.40;8.50;;;14.20;99.90;;;;;;4971866;29;20461;-86
2021/08/31 22:09:15;;;;;;;10.80;9.83;;;14.10;99.90;;;;;;4972864;28;20515;-87
2021/08/31 22:11:42;;;;;;;10.10;9.10;;;14.10;99.90;;;;;;4973119;28;20465;-85
2021/08/31 22:14:09;;;;;;;10.47;9.40;;;14.10;99.90;;;;;;4972771;29;20459;-84
2021/08/31 22:16:36;;;;;;;10.60;9.57;;;14.00;99.90;;;;;;4973905;29;20445;-86
2021/08/31 22:19:04;;;;;;;10.63;9.60;;;14.00;99.90;;;;;;4971299;29;20453;-85
2021/08/31 22:21:31;;;;;;;10.53;9.53;;;14.00;99.90;;;;;;4969520;29;20499;-85
2021/08/31 22:23:58;;;;;;;9.70;8.80;;;14.00;99.90;;;;;;4969796;29;20456;-85
2021/08/31 22:26:25;;;;;;;11.40;10.40;;;13.90;99.90;;;;;;4970681;29;20856;-84
2021/08/31 22:28:52;;;;;;;13.03;11.27;;;13.90;99.90;;;;;;4972146;28;20555;-85
2021/08/31 22:31:19;;;;;;;10.53;9.53;;;13.90;99.90;;;;;;4968529;28;20473;-87
2021/08/31 22:33:52;;;;;;;11.47;10.50;;;13.90;99.90;;;;;;4969387;29;20470;-85
2021/08/31 22:36:21;;;;;;;14.70;11.90;;;13.80;99.90;;;;;;4968544;29;20489;-86
2021/08/31 22:38:48;;;;;;;10.90;9.87;;;13.80;99.90;;;;;;4968212;28;20454;-85
2021/08/31 22:41:15;;;;;;;11.10;9.00;;;13.80;99.90;;;;;;4969712;29;20502;-87
2021/08/31 22:43:42;;;;;;;11.40;10.20;;;13.80;99.90;;;;;;4969540;28;20460;-85
2021/08/31 22:46:09;;;;;;;12.07;11.07;;;13.80;99.90;;;;;;4970409;29;20461;-87
2021/08/31 22:48:35;;;;;;;11.10;10.00;;;13.70;99.90;;;;;;4971144;28;20460;-86
2021/08/31 22:51:02;;;;;;;11.47;10.27;;;13.70;99.90;;;;;;4970211;28;20567;-84
2021/08/31 22:53:30;;;;;;;14.90;11.40;;;13.70;99.90;;;;;;4969687;29;20469;-85
2021/08/31 22:55:57;;;;;;;12.53;11.00;;;13.70;99.90;;;;;;4970443;29;20463;-86
2021/08/31 22:58:23;;;;;;;9.93;9.00;;;13.60;99.90;;;;;;4969119;29;20467;-85
2021/08/31 23:00:50;;;;;;;10.40;9.50;;;13.60;99.90;;;;;;4969955;29;20500;-85
2021/08/31 23:03:17;;;;;;;11.60;10.40;;;13.60;99.90;;;;;;4968968;29;20453;-87
2021/08/31 23:05:44;;;;;;;11.73;10.63;;;13.60;99.90;;;;;;4969373;28;20464;-85
2021/08/31 23:08:10;;;;;;;10.90;9.80;;;13.50;99.90;;;;;;4969774;29;20455;-86
2021/08/31 23:10:38;;;;;;;12.70;10.50;;;13.50;99.90;;;;;;4969288;29;20475;-86
2021/08/31 23:13:05;;;;;;;10.27;9.20;;;13.50;99.90;;;;;;4968769;29;20456;-86
2021/08/31 23:15:32;;;;;;;13.07;10.97;;;13.50;99.90;;;;;;4968699;29;20460;-84
2021/08/31 23:17:58;;;;;;;12.10;10.90;;;13.40;99.90;;;;;;4970946;29;20441;-84
2021/08/31 23:20:25;;;;;;;13.27;11.07;;;13.40;99.90;;;;;;4973924;28;20477;-83
2021/08/31 23:22:52;;;;;;;13.53;12.17;;;13.40;99.90;;;;;;4973278;29;20456;-84
2021/08/31 23:25:19;;;;;;;12.53;11.33;;;13.40;99.90;;;;;;4972309;28;20939;-85
2021/08/31 23:27:50;;;;;;;13.27;10.57;;;13.30;99.90;;;;;;4973310;29;20456;-85
2021/08/31 23:30:17;;;;;;;11.93;10.77;;;13.30;99.90;;;;;;4974098;29;20483;-84
2021/08/31 23:32:44;;;;;;;12.37;11.00;;;13.20;99.90;;;;;;4973145;29;20461;-84
2021/08/31 23:35:12;;;;;;;13.67;11.13;;;13.20;99.90;;;;;;4974555;29;20862;-84
2021/08/31 23:37:39;;;;;;;12.97;11.67;;;13.20;99.90;;;;;;4972149;29;21054;-83
2021/08/31 23:40:07;;;;;;;12.90;11.70;;;13.20;99.90;;;;;;4974516;29;20439;-84
2021/08/31 23:42:34;;;;;;;13.33;12.03;;;13.20;99.90;;;;;;4973126;28;20488;-87
2021/08/31 23:45:03;;;;;;;12.20;10.53;;;13.10;99.90;;;;;;4972453;29;20462;-83
2021/08/31 23:47:30;;;;;;;13.43;11.70;;;13.10;99.90;;;;;;4971836;29;20515;-83
2021/08/31 23:49:56;;;;;;;11.60;10.50;;;13.10;99.90;;;;;;4971075;29;20455;-84
2021/08/31 23:52:23;;;;;;;12.53;11.20;;;13.10;99.90;;;;;;4969841;29;20463;-85
2021/08/31 23:54:50;;;;;;;10.87;9.70;;;13.10;99.90;;;;;;4969934;29;20441;-84
2021/08/31 23:57:17;;;;;;;14.70;12.10;;;13.00;99.90;;;;;;4969679;29;20456;-83
2021/08/31 23:59:43;;;;;;;13.07;11.73;;;13.10;99.90;;;;;;4969431;29;20480;-84
